createdAt,value
2018-07-23T00:00:14.228Z,26.97
2018-07-23T00:02:41.446Z,27.47
2018-07-23T00:05:08.590Z,26.20
2018-07-23T00:07:35.771Z,25.40
2018-07-23T00:10:03.253Z,25.73
2018-07-23T00:12:30.407Z,26.60
2018-07-23T00:14:57.556Z,26.63
2018-07-23T00:17:24.725Z,28.80
2018-07-23T00:19:51.920Z,26.57
2018-07-23T00:22:19.193Z,26.10
2018-07-23T00:24:46.333Z,27.57
2018-07-23T00:27:13.481Z,26.90
2018-07-23T00:29:40.632Z,27.77
2018-07-23T00:32:08.168Z,28.33
2018-07-23T00:34:35.373Z,27.43
2018-07-23T00:37:02.744Z,32.60
2018-07-23T00:39:29.903Z,25.57
2018-07-23T00:41:57.016Z,27.30
2018-07-23T00:44:24.172Z,30.07
2018-07-23T00:46:51.420Z,28.13
2018-07-23T00:51:52.679Z,30.83
2018-07-23T00:54:19.834Z,28.33
2018-07-23T00:56:46.912Z,27.63
2018-07-23T00:59:14.037Z,30.00
2018-07-23T01:01:41.129Z,28.93
2018-07-23T01:04:08.244Z,29.27
2018-07-23T01:06:35.428Z,34.00
2018-07-23T01:09:03.721Z,32.20
2018-07-23T01:11:30.884Z,30.40
2018-07-23T01:13:58.000Z,28.37
2018-07-23T01:16:25.092Z,29.20
2018-07-23T01:18:52.268Z,28.70
2018-07-23T01:21:19.416Z,28.87
2018-07-23T01:23:46.561Z,28.37
2018-07-23T01:26:13.712Z,27.37
2018-07-23T01:28:40.818Z,30.87
2018-07-23T01:31:07.903Z,28.33
2018-07-23T01:33:35.035Z,29.20
2018-07-23T01:36:02.121Z,31.20
2018-07-23T01:38:29.272Z,29.00
2018-07-23T01:40:56.387Z,29.70
2018-07-23T01:43:23.513Z,28.47
2018-07-23T01:45:50.643Z,28.33
2018-07-23T01:48:17.781Z,27.37
2018-07-23T01:50:44.888Z,26.80
2018-07-23T01:53:12.288Z,25.30
2018-07-23T01:55:39.416Z,25.17
2018-07-23T01:58:06.876Z,23.40
2018-07-23T02:00:36.104Z,22.63
2018-07-23T02:03:03.453Z,24.00
2018-07-23T02:05:30.612Z,24.67
2018-07-23T02:07:57.789Z,22.93
2018-07-23T02:10:24.953Z,24.47
2018-07-23T02:12:52.129Z,22.60
2018-07-23T02:15:19.233Z,23.57
2018-07-23T02:17:46.352Z,23.60
2018-07-23T02:20:13.533Z,22.87
2018-07-23T02:22:40.645Z,22.23
2018-07-23T02:25:07.809Z,21.50
2018-07-23T02:27:34.960Z,23.83
2018-07-23T02:30:02.499Z,23.23
2018-07-23T02:32:29.613Z,24.03
2018-07-23T02:34:56.788Z,21.40
2018-07-23T02:37:23.905Z,23.73
2018-07-23T02:39:51.047Z,23.20
2018-07-23T02:42:18.172Z,25.07
2018-07-23T02:44:45.317Z,24.23
2018-07-23T02:47:12.460Z,25.43
2018-07-23T02:49:39.641Z,24.90
2018-07-23T02:52:06.796Z,25.97
2018-07-23T02:54:33.945Z,27.10
2018-07-23T02:57:01.082Z,24.43
2018-07-23T02:59:28.236Z,28.10
2018-07-23T03:01:55.364Z,26.30
2018-07-23T03:04:22.495Z,27.60
2018-07-23T03:06:49.625Z,24.70
2018-07-23T03:09:16.792Z,24.50
2018-07-23T03:11:43.924Z,23.80
2018-07-23T03:14:11.062Z,24.57
2018-07-23T03:16:38.200Z,26.13
2018-07-23T03:19:05.427Z,25.57
2018-07-23T03:21:32.549Z,26.90
2018-07-23T03:23:59.759Z,24.87
2018-07-23T03:26:26.860Z,27.07
2018-07-23T03:28:54.035Z,25.50
2018-07-23T03:31:21.170Z,24.53
2018-07-23T03:33:48.347Z,26.17
2018-07-23T03:36:15.469Z,24.87
2018-07-23T03:38:42.577Z,25.07
2018-07-23T03:41:09.768Z,23.53
2018-07-23T03:43:36.928Z,26.60
2018-07-23T03:46:04.179Z,26.73
2018-07-23T03:48:31.383Z,25.80
2018-07-23T03:50:58.535Z,24.40
2018-07-23T03:53:25.660Z,25.63
2018-07-23T03:55:52.805Z,26.60
2018-07-23T03:58:19.924Z,26.13
2018-07-23T04:00:47.043Z,26.57
2018-07-23T04:03:14.199Z,27.97
2018-07-23T04:05:41.380Z,28.37
2018-07-23T04:08:08.512Z,27.83
2018-07-23T04:10:35.690Z,29.03
2018-07-23T04:13:02.925Z,27.60
2018-07-23T04:15:30.060Z,31.43
2018-07-23T04:18:04.096Z,29.87
2018-07-23T04:20:34.448Z,30.17
2018-07-23T04:23:01.981Z,31.20
2018-07-23T04:25:29.549Z,30.00
2018-07-23T04:27:56.649Z,33.10
2018-07-23T04:30:23.747Z,31.13
2018-07-23T04:32:50.877Z,31.57
2018-07-23T04:35:18.052Z,30.03
2018-07-23T04:37:45.203Z,32.67
2018-07-23T04:40:12.312Z,45.97
2018-07-23T04:42:39.466Z,31.27
2018-07-23T04:45:06.573Z,29.23
2018-07-23T04:47:33.684Z,31.20
2018-07-23T04:50:00.828Z,32.30
2018-07-23T04:52:28.003Z,32.87
2018-07-23T04:54:55.156Z,34.67
2018-07-23T04:57:22.309Z,35.50
2018-07-23T04:59:49.452Z,33.87
2018-07-23T05:02:16.614Z,29.40
2018-07-23T05:04:43.783Z,29.83
2018-07-23T05:07:10.921Z,33.03
2018-07-23T05:09:38.079Z,29.97
2018-07-23T05:12:05.202Z,30.47
2018-07-23T05:14:32.333Z,28.37
2018-07-23T05:16:59.452Z,31.77
2018-07-23T05:19:26.569Z,30.87
2018-07-23T05:21:53.681Z,30.73
2018-07-23T05:24:20.837Z,31.97
2018-07-23T05:26:47.954Z,29.70
2018-07-23T05:29:15.120Z,30.90
2018-07-23T05:31:42.253Z,29.03
2018-07-23T05:34:09.399Z,30.03
2018-07-23T05:36:36.520Z,28.97
2018-07-23T05:39:06.672Z,28.33
2018-07-23T05:41:33.883Z,29.67
2018-07-23T05:44:01.056Z,29.53
2018-07-23T05:46:28.170Z,31.97
2018-07-23T05:48:55.295Z,31.60
2018-07-23T05:51:22.444Z,31.83
2018-07-23T05:53:49.544Z,28.50
2018-07-23T05:56:16.687Z,29.10
2018-07-23T05:58:43.833Z,26.70
2018-07-23T06:01:10.977Z,23.60
2018-07-23T06:03:38.152Z,26.90
2018-07-23T06:06:05.320Z,23.70
2018-07-23T06:08:32.464Z,23.33
2018-07-23T06:10:59.579Z,22.83
2018-07-23T06:13:26.761Z,24.10
2018-07-23T06:15:54.008Z,24.73
2018-07-23T06:18:21.153Z,26.70
2018-07-23T06:20:48.277Z,28.93
2018-07-23T06:23:15.414Z,27.90
2018-07-23T06:25:42.625Z,24.43
2018-07-23T06:28:09.750Z,23.97
2018-07-23T06:30:36.955Z,23.30
2018-07-23T06:33:04.053Z,23.23
2018-07-23T06:35:31.187Z,24.07
2018-07-23T06:37:58.316Z,23.00
2018-07-23T06:40:25.481Z,24.03
2018-07-23T06:42:52.848Z,24.20
2018-07-23T06:45:19.973Z,22.67
2018-07-23T06:47:47.091Z,21.77
2018-07-23T06:50:14.270Z,21.53
2018-07-23T06:52:41.461Z,22.40
2018-07-23T06:55:08.609Z,23.90
2018-07-23T06:57:35.766Z,21.73
2018-07-23T07:00:03.165Z,22.53
2018-07-23T07:02:30.308Z,22.77
2018-07-23T07:04:57.448Z,21.30
2018-07-23T07:07:24.624Z,22.47
2018-07-23T07:09:51.807Z,21.20
2018-07-23T07:12:18.957Z,21.63
2018-07-23T07:14:46.137Z,20.00
2018-07-23T07:17:13.340Z,20.20
2018-07-23T07:19:40.489Z,19.37
2018-07-23T07:22:07.619Z,18.87
2018-07-23T07:24:34.768Z,19.33
2018-07-23T07:27:01.940Z,18.63
2018-07-23T07:29:29.102Z,19.07
2018-07-23T07:31:56.217Z,19.40
2018-07-23T07:34:23.332Z,18.83
2018-07-23T07:36:50.434Z,19.57
2018-07-23T07:39:17.576Z,19.43
2018-07-23T07:41:44.745Z,17.90
2018-07-23T07:44:11.880Z,18.40
2018-07-23T07:46:40.064Z,19.97
2018-07-23T07:49:07.436Z,17.63
2018-07-23T07:51:34.527Z,18.00
2018-07-23T07:54:01.717Z,18.17
2018-07-23T07:56:29.197Z,19.53
2018-07-23T07:58:56.385Z,18.80
2018-07-23T08:01:23.577Z,19.10
2018-07-23T08:03:50.720Z,18.90
2018-07-23T08:06:17.880Z,16.87
2018-07-23T08:08:45.051Z,18.13
2018-07-23T08:11:12.377Z,17.80
2018-07-23T08:13:39.533Z,17.53
2018-07-23T08:16:06.701Z,17.03
2018-07-23T08:18:33.842Z,17.97
2018-07-23T08:21:00.976Z,18.13
2018-07-23T08:23:28.117Z,18.03
2018-07-23T08:25:55.284Z,15.43
2018-07-23T08:28:22.408Z,16.80
2018-07-23T08:30:49.560Z,15.90
2018-07-23T08:33:16.705Z,16.20
2018-07-23T08:35:43.867Z,16.80
2018-07-23T08:38:11.017Z,16.77
2018-07-23T08:40:38.164Z,16.40
2018-07-23T08:43:05.726Z,16.83
2018-07-23T08:45:32.873Z,15.47
2018-07-23T08:48:00.010Z,15.33
2018-07-23T08:50:27.153Z,15.20
2018-07-23T08:52:54.268Z,14.10
2018-07-23T08:55:21.465Z,14.50
2018-07-23T08:57:48.796Z,15.00
2018-07-23T09:00:15.960Z,14.97
2018-07-23T09:02:43.117Z,14.60
2018-07-23T09:05:10.276Z,14.80
2018-07-23T09:07:37.394Z,13.47
2018-07-23T09:10:05.314Z,13.87
2018-07-23T09:12:32.504Z,12.70
2018-07-23T09:14:59.680Z,13.43
2018-07-23T09:17:26.820Z,12.90
2018-07-23T09:19:53.921Z,13.53
2018-07-23T09:22:21.060Z,13.00
2018-07-23T09:24:48.201Z,12.37
2018-07-23T09:27:15.360Z,12.10
2018-07-23T09:29:42.488Z,13.37
2018-07-23T09:32:09.653Z,13.13
2018-07-23T09:34:36.788Z,12.53
2018-07-23T09:37:03.998Z,12.50
2018-07-23T09:39:31.074Z,13.30
2018-07-23T09:41:58.441Z,12.40
2018-07-23T09:44:25.611Z,13.67
2018-07-23T09:46:52.749Z,12.83
2018-07-23T09:49:19.889Z,12.40
2018-07-23T09:51:47.029Z,11.73
2018-07-23T09:54:14.239Z,13.17
2018-07-23T09:56:41.389Z,12.60
2018-07-23T09:59:08.533Z,11.90
2018-07-23T10:01:35.644Z,13.13
2018-07-23T10:04:02.756Z,12.37
2018-07-23T10:06:29.935Z,14.37
2018-07-23T10:08:57.084Z,12.97
2018-07-23T10:11:24.196Z,13.03
2018-07-23T10:13:51.371Z,12.97
2018-07-23T10:16:18.474Z,12.50
2018-07-23T10:18:45.728Z,11.90
2018-07-23T10:21:12.921Z,16.00
2018-07-23T10:23:40.129Z,12.67
2018-07-23T10:26:07.330Z,12.70
2018-07-23T10:28:34.472Z,13.20
2018-07-23T10:31:01.616Z,14.00
2018-07-23T10:33:28.780Z,12.00
2018-07-23T10:35:55.881Z,13.70
2018-07-23T10:38:23.024Z,13.43
2018-07-23T10:40:50.169Z,14.00
2018-07-23T10:43:17.345Z,11.33
2018-07-23T10:45:44.489Z,13.67
2018-07-23T10:48:11.637Z,13.57
2018-07-23T10:50:38.858Z,13.17
2018-07-23T10:53:06.059Z,15.17
2018-07-23T10:55:33.271Z,15.50
2018-07-23T10:58:00.436Z,15.13
2018-07-23T11:00:27.661Z,15.10
2018-07-23T11:02:54.860Z,15.50
2018-07-23T11:05:21.998Z,16.20
2018-07-23T11:07:49.819Z,14.63
2018-07-23T11:10:17.094Z,14.60
2018-07-23T11:12:44.297Z,15.70
2018-07-23T11:15:11.541Z,15.63
2018-07-23T11:17:38.739Z,14.17
2018-07-23T11:20:08.372Z,17.30
2018-07-23T11:22:35.541Z,14.80
2018-07-23T11:25:38.220Z,13.80
2018-07-23T11:27:30.247Z,14.60
2018-07-23T11:29:57.451Z,14.00
2018-07-23T11:32:24.622Z,13.37
2018-07-23T11:34:51.796Z,12.33
2018-07-23T11:37:18.943Z,13.00
2018-07-23T11:39:46.124Z,13.03
2018-07-23T11:42:13.309Z,12.50
2018-07-23T11:44:40.441Z,12.63
2018-07-23T11:47:07.613Z,20.23
2018-07-23T11:49:34.752Z,12.07
2018-07-23T11:52:01.942Z,10.00
2018-07-23T11:54:29.078Z,11.10
2018-07-23T11:56:56.227Z,10.57
2018-07-23T11:59:23.432Z,11.20
2018-07-23T12:01:50.650Z,11.03
2018-07-23T12:04:17.824Z,10.20
2018-07-23T12:06:44.936Z,10.77
2018-07-23T12:09:12.142Z,10.87
2018-07-23T12:11:39.641Z,11.90
2018-07-23T12:14:07.180Z,11.07
2018-07-23T12:16:34.742Z,12.90
2018-07-23T12:19:01.896Z,11.20
2018-07-23T12:21:29.041Z,11.87
2018-07-23T12:23:56.260Z,12.17
2018-07-23T12:26:23.459Z,11.67
2018-07-23T12:28:50.647Z,12.13
2018-07-23T12:31:17.841Z,13.17
2018-07-23T12:33:44.985Z,11.90
2018-07-23T12:36:13.144Z,11.90
2018-07-23T12:38:40.299Z,11.10
2018-07-23T12:41:07.486Z,11.40
2018-07-23T12:43:34.640Z,11.03
2018-07-23T12:46:01.851Z,11.47
2018-07-23T12:48:29.040Z,11.80
2018-07-23T12:50:56.232Z,11.37
2018-07-23T12:53:23.431Z,11.33
2018-07-23T12:55:50.641Z,10.50
2018-07-23T12:58:17.870Z,12.27
2018-07-23T13:00:45.133Z,11.60
2018-07-23T13:03:12.297Z,11.40
2018-07-23T13:05:39.450Z,10.70
2018-07-23T13:08:06.700Z,9.47
2018-07-23T13:10:33.876Z,9.50
2018-07-23T13:13:01.160Z,10.77
2018-07-23T13:15:28.452Z,10.00
2018-07-23T13:17:55.638Z,10.33
2018-07-23T13:20:23.050Z,9.77
2018-07-23T13:22:50.304Z,10.30
2018-07-23T13:25:17.647Z,10.93
2018-07-23T13:27:45.029Z,10.87
2018-07-23T13:30:12.308Z,10.87
2018-07-23T13:32:39.469Z,10.83
2018-07-23T13:35:06.666Z,11.27
2018-07-23T13:37:33.849Z,10.70
2018-07-23T13:40:01.005Z,10.77
2018-07-23T13:42:28.195Z,12.37
2018-07-23T13:44:55.399Z,11.43
2018-07-23T13:47:22.762Z,10.70
2018-07-23T13:49:49.908Z,11.87
2018-07-23T13:52:17.083Z,11.00
2018-07-23T13:54:44.390Z,12.13
2018-07-23T13:57:11.602Z,13.50
2018-07-23T13:59:38.794Z,12.23
2018-07-23T14:02:05.960Z,11.53
2018-07-23T14:04:33.188Z,10.60
2018-07-23T14:07:00.419Z,10.47
2018-07-23T14:09:27.629Z,11.60
2018-07-23T14:11:54.849Z,10.40
2018-07-23T14:14:22.088Z,10.13
2018-07-23T14:16:49.301Z,11.60
2018-07-23T14:19:16.479Z,10.93
2018-07-23T14:21:43.754Z,9.83
2018-07-23T14:24:11.014Z,10.30
2018-07-23T14:26:38.164Z,9.70
2018-07-23T14:29:05.510Z,11.57
2018-07-23T14:31:32.672Z,9.30
2018-07-23T14:33:59.896Z,9.03
2018-07-23T14:36:27.072Z,9.43
2018-07-23T14:38:54.269Z,10.60
2018-07-23T14:41:21.540Z,10.10
2018-07-23T14:43:48.727Z,9.43
2018-07-23T14:46:16.356Z,10.43
2018-07-23T14:48:43.582Z,10.67
2018-07-23T14:51:10.754Z,8.53
2018-07-23T14:53:37.998Z,10.03
2018-07-23T14:56:05.245Z,7.90
2018-07-23T14:58:32.443Z,8.93
2018-07-23T15:00:59.622Z,8.00
2018-07-23T15:03:26.857Z,8.13
2018-07-23T15:05:54.032Z,8.23
2018-07-23T15:08:21.275Z,11.13
2018-07-23T15:10:48.529Z,9.10
2018-07-23T15:13:15.933Z,9.07
2018-07-23T15:15:43.693Z,9.03
2018-07-23T15:18:10.883Z,9.20
2018-07-23T15:20:38.097Z,8.63
2018-07-23T15:23:05.599Z,9.33
2018-07-23T15:25:32.757Z,8.20
2018-07-23T15:27:59.971Z,8.40
2018-07-23T15:30:27.141Z,8.80
2018-07-23T15:32:54.432Z,9.00
2018-07-23T15:35:21.618Z,8.77
2018-07-23T15:37:48.887Z,8.57
2018-07-23T15:40:16.162Z,9.13
2018-07-23T15:42:43.378Z,7.93
2018-07-23T15:45:10.660Z,8.13
2018-07-23T15:47:38.099Z,7.80
2018-07-23T15:50:05.481Z,7.67
2018-07-23T15:52:32.757Z,8.33
2018-07-23T15:55:00.077Z,8.00
2018-07-23T15:57:27.217Z,7.90
2018-07-23T15:59:54.458Z,8.17
2018-07-23T16:02:21.603Z,9.57
2018-07-23T16:04:48.805Z,8.73
2018-07-23T16:07:16.005Z,7.47
2018-07-23T16:09:43.211Z,8.50
2018-07-23T16:12:10.322Z,7.73
2018-07-23T16:14:37.492Z,8.13
2018-07-23T16:17:04.634Z,8.57
2018-07-23T16:19:31.780Z,9.00
2018-07-23T16:21:58.979Z,8.90
2018-07-23T16:24:26.143Z,9.23
2018-07-23T16:26:53.335Z,8.57
2018-07-23T16:29:20.524Z,8.53
2018-07-23T16:31:47.712Z,9.70
2018-07-23T16:34:14.905Z,9.83
2018-07-23T16:36:42.041Z,9.83
2018-07-23T16:39:11.071Z,11.07
2018-07-23T16:41:38.259Z,9.40
2018-07-23T16:44:05.820Z,9.70
2018-07-23T16:46:33.010Z,9.73
2018-07-23T16:49:00.188Z,10.83
2018-07-23T16:51:27.547Z,13.27
2018-07-23T16:53:54.795Z,10.33
2018-07-23T16:56:22.037Z,9.67
2018-07-23T16:58:49.222Z,10.47
2018-07-23T17:01:16.540Z,24.00
2018-07-23T17:03:43.838Z,10.50
2018-07-23T17:06:11.080Z,12.57
2018-07-23T17:08:38.208Z,10.53
2018-07-23T17:11:05.502Z,10.27
2018-07-23T17:13:32.604Z,11.17
2018-07-23T17:15:59.843Z,11.00
2018-07-23T17:18:27.015Z,11.53
2018-07-23T17:20:54.176Z,10.87
2018-07-23T17:23:21.312Z,9.73
2018-07-23T17:25:48.467Z,10.00
2018-07-23T17:28:15.625Z,10.23
2018-07-23T17:30:42.783Z,10.57
2018-07-23T17:33:09.962Z,10.67
2018-07-23T17:35:37.160Z,11.23
2018-07-23T17:38:04.255Z,10.30
2018-07-23T17:40:31.408Z,11.97
2018-07-23T17:42:58.541Z,11.77
2018-07-23T17:45:25.719Z,10.80
2018-07-23T17:47:52.855Z,11.80
2018-07-23T17:50:20.162Z,11.70
2018-07-23T17:52:47.327Z,10.80
2018-07-23T17:55:14.587Z,12.30
2018-07-23T17:57:41.712Z,10.23
2018-07-23T18:00:08.984Z,10.90
2018-07-23T18:02:36.196Z,12.00
2018-07-23T18:05:03.884Z,10.20
2018-07-23T18:07:31.098Z,11.80
2018-07-23T18:09:58.291Z,11.43
2018-07-23T18:12:25.442Z,11.20
2018-07-23T18:14:52.615Z,10.43
2018-07-23T18:17:19.835Z,11.20
2018-07-23T18:19:46.981Z,11.33
2018-07-23T18:22:14.121Z,10.73
2018-07-23T18:24:41.308Z,12.10
2018-07-23T18:27:08.434Z,12.10
2018-07-23T18:29:35.600Z,12.30
2018-07-23T18:32:03.285Z,11.10
2018-07-23T18:34:30.489Z,11.43
2018-07-23T18:36:57.668Z,12.20
2018-07-23T18:39:24.880Z,15.90
2018-07-23T18:41:52.036Z,12.03
2018-07-23T18:44:19.231Z,13.43
2018-07-23T18:46:46.414Z,11.97
2018-07-23T18:49:28.512Z,12.97
2018-07-23T18:51:56.831Z,12.90
2018-07-23T18:54:26.039Z,12.13
2018-07-23T18:56:54.508Z,12.57
2018-07-23T18:59:21.678Z,12.90
2018-07-23T19:01:50.795Z,12.13
2018-07-23T19:04:18.167Z,12.00
2018-07-23T19:06:45.400Z,12.70
2018-07-23T19:09:14.914Z,13.03
2018-07-23T19:11:43.330Z,12.27
2018-07-23T19:14:10.938Z,13.17
2018-07-23T19:16:38.854Z,13.77
2018-07-23T19:19:05.968Z,12.70
2018-07-23T19:21:37.159Z,12.60
2018-07-23T19:24:04.473Z,12.40
2018-07-23T19:26:31.687Z,12.20
2018-07-23T19:28:58.808Z,14.70
2018-07-23T19:31:27.117Z,13.00
2018-07-23T19:33:54.741Z,13.27
2018-07-23T19:36:21.977Z,12.17
2018-07-23T19:38:49.384Z,12.67
2018-07-23T19:41:16.751Z,12.83
2018-07-23T19:43:43.896Z,11.43
2018-07-23T19:46:11.257Z,12.17
2018-07-23T19:48:39.028Z,14.60
2018-07-23T19:51:06.617Z,13.63
2018-07-23T19:53:33.844Z,14.30
2018-07-23T19:56:01.076Z,13.90
2018-07-23T19:58:28.520Z,13.73
2018-07-23T20:00:55.692Z,13.50
2018-07-23T20:03:22.891Z,14.30
2018-07-23T20:05:50.093Z,13.50
2018-07-23T20:08:17.227Z,13.93
2018-07-23T20:10:44.453Z,14.30
2018-07-23T20:13:11.684Z,15.43
2018-07-23T20:15:38.847Z,14.13
2018-07-23T20:18:06.092Z,15.83
2018-07-23T20:20:33.293Z,14.77
2018-07-23T20:23:00.577Z,13.00
2018-07-23T20:25:27.741Z,15.43
2018-07-23T20:27:54.955Z,14.13
2018-07-23T20:30:22.171Z,15.13
2018-07-23T20:32:53.189Z,15.53
2018-07-23T20:35:20.726Z,14.63
2018-07-23T20:37:48.124Z,15.27
2018-07-23T20:40:15.342Z,15.73
2018-07-23T20:42:42.510Z,15.43
2018-07-23T20:45:09.883Z,15.40
2018-07-23T20:47:37.203Z,16.60
2018-07-23T20:50:04.721Z,17.13
2018-07-23T20:52:31.931Z,15.53
2018-07-23T20:54:59.279Z,14.17
2018-07-23T20:57:26.448Z,15.43
2018-07-23T20:59:53.545Z,15.40
2018-07-23T21:02:20.789Z,16.20
2018-07-23T21:04:48.111Z,14.20
2018-07-23T21:07:17.219Z,16.50
2018-07-23T21:09:44.788Z,16.83
2018-07-23T21:12:11.951Z,16.23
2018-07-23T21:14:39.056Z,14.80
2018-07-23T21:17:06.191Z,16.13
2018-07-23T21:19:33.402Z,16.67
2018-07-23T21:22:00.482Z,17.17
2018-07-23T21:24:27.628Z,15.80
2018-07-23T21:26:54.802Z,16.37
2018-07-23T21:29:21.971Z,15.80
2018-07-23T21:31:49.085Z,16.83
2018-07-23T21:34:16.196Z,17.00
2018-07-23T21:36:43.339Z,16.90
2018-07-23T21:39:10.934Z,16.83
2018-07-23T21:41:38.169Z,18.70
2018-07-23T21:44:05.268Z,17.30
2018-07-23T21:46:32.434Z,18.50
2018-07-23T21:48:59.593Z,16.83
2018-07-23T21:51:26.752Z,18.40
2018-07-23T21:53:54.320Z,17.97
2018-07-23T21:56:21.500Z,18.67
2018-07-23T21:58:48.745Z,17.10
2018-07-23T22:01:15.876Z,18.83
2018-07-23T22:03:43.028Z,16.53
2018-07-23T22:06:10.171Z,19.07
2018-07-23T22:08:37.282Z,17.27
2018-07-23T22:11:04.459Z,18.13
2018-07-23T22:13:31.592Z,18.17
2018-07-23T22:15:59.007Z,22.63
2018-07-23T22:18:26.132Z,18.33
2018-07-23T22:20:53.260Z,20.23
2018-07-23T22:23:20.367Z,20.40
2018-07-23T22:25:47.525Z,23.07
2018-07-23T22:28:14.672Z,22.27
2018-07-23T22:30:41.764Z,22.53
2018-07-23T22:33:08.933Z,23.13
2018-07-23T22:35:36.058Z,22.73
2018-07-23T22:38:03.232Z,23.03
2018-07-23T22:40:30.397Z,22.57
2018-07-23T22:42:57.543Z,20.43
2018-07-23T22:45:24.674Z,22.03
2018-07-23T22:47:51.827Z,21.23
2018-07-23T22:50:18.956Z,25.30
2018-07-23T22:52:46.096Z,25.10
2018-07-23T22:55:13.219Z,25.73
2018-07-23T22:57:40.455Z,26.93
2018-07-23T23:00:07.614Z,22.63
2018-07-23T23:02:34.778Z,23.17
2018-07-23T23:05:02.468Z,20.50
2018-07-23T23:07:29.704Z,21.53
2018-07-23T23:09:56.841Z,22.10
2018-07-23T23:12:23.950Z,21.93
2018-07-23T23:14:51.055Z,22.87
2018-07-23T23:17:18.213Z,21.63
2018-07-23T23:19:45.372Z,22.37
2018-07-23T23:22:12.531Z,21.77
2018-07-23T23:24:39.674Z,23.00
2018-07-23T23:27:06.838Z,22.63
2018-07-23T23:29:33.933Z,23.03
2018-07-23T23:32:01.028Z,21.50
2018-07-23T23:34:28.133Z,21.17
2018-07-23T23:36:55.248Z,19.53
2018-07-23T23:39:22.415Z,20.20
2018-07-23T23:41:49.561Z,22.17
2018-07-23T23:44:16.711Z,22.90
2018-07-23T23:46:43.819Z,23.03
2018-07-23T23:49:10.969Z,23.50
2018-07-23T23:51:38.053Z,22.73
2018-07-23T23:54:05.327Z,20.70
2018-07-23T23:56:32.503Z,21.93
2018-07-23T23:58:59.711Z,20.77
